Time;durP1;ratioP1;P1;durP2;ratioP2;P2;SDS_P1;SDS_P2;PMS_P1;PMS_P2;Temp;Humidity;BMP_temperature;BMP_pressure;BME280_temperature;BME280_humidity;BME280_pressure;Samples;Min_cycle;Max_cycle;Signal;HPM_P1;HPM_P2
2022/11/25 00:01:17;;;;;;;27.55;15.20;;;;;;;5.02;86.88;99726.70;1787999;80;21754;-65
2022/11/25 00:03:45;;;;;;;27.85;15.03;;;;;;;4.98;86.86;99730.44;1786468;80;20932;-65
2022/11/25 00:06:23;;;;;;;25.95;15.78;;;;;;;4.96;86.86;99723.64;1788012;80;20994;-65
2022/11/25 00:09:00;;;;;;;32.15;15.83;;;;;;;4.94;86.92;99726.36;1785309;80;21066;-65
2022/11/25 00:11:27;;;;;;;26.52;15.40;;;;;;;4.95;86.93;99723.27;1787301;80;20924;-66
2022/11/25 00:13:54;;;;;;;39.00;15.63;;;;;;;4.96;86.97;99727.09;1756916;80;21950;-65
2022/11/25 00:16:22;;;;;;;58.02;16.23;;;;;;;4.98;86.98;99724.38;1756801;81;20979;-65
2022/11/25 00:18:50;;;;;;;33.67;16.25;;;;;;;4.97;86.96;99725.31;1756771;80;20987;-65
2022/11/25 00:21:20;;;;;;;26.80;15.93;;;;;;;4.96;86.96;99730.19;1757890;80;20979;-65
2022/11/25 00:23:58;;;;;;;28.95;15.50;;;;;;;4.96;86.99;99727.09;1756965;81;20983;-66
2022/11/25 00:26:26;;;;;;;29.05;16.67;;;;;;;4.95;86.95;99728.04;1757015;81;22806;-65
2022/11/25 00:28:53;;;;;;;27.07;16.48;;;;;;;4.94;86.93;99734.69;1756945;81;20991;-65
2022/11/25 00:31:25;;;;;;;35.13;17.27;;;;;;;4.90;86.92;99731.41;1756911;81;21043;-65
2022/11/25 00:33:51;;;;;;;27.05;17.15;;;;;;;4.90;86.95;99727.48;1756935;81;21533;-65
2022/11/25 00:36:23;;;;;;;29.32;18.32;;;;;;;4.90;86.99;99731.41;1756861;81;20947;-65
2022/11/25 00:38:57;;;;;;;30.43;18.37;;;;;;;4.89;86.99;99729.27;1757713;80;21840;-65
2022/11/25 00:46:56;;;;;;;44.65;16.55;;;;;;;4.92;87.00;99739.16;1756915;81;21438;-66
2022/11/25 00:49:23;;;;;;;47.40;16.65;;;;;;;4.89;87.00;99730.58;1756752;81;20963;-65
2022/11/25 00:51:50;;;;;;;37.73;15.90;;;;;;;4.91;87.03;99729.64;1756645;80;21822;-66
2022/11/25 00:54:16;;;;;;;29.00;15.80;;;;;;;4.90;86.99;99730.11;1728441;81;20987;-65
2022/11/25 00:56:42;;;;;;;25.57;16.73;;;;;;;4.87;86.98;99731.16;1756828;80;21046;-65
2022/11/25 00:59:09;;;;;;;40.48;17.12;;;;;;;4.87;87.00;99731.63;1757044;81;21375;-65
2022/11/25 01:01:38;;;;;;;26.97;16.37;;;;;;;4.85;87.00;99730.90;1756845;81;21078;-65
2022/11/25 01:04:05;;;;;;;29.90;18.62;;;;;;;4.84;87.03;99727.91;1756879;81;21930;-65
2022/11/25 01:06:34;;;;;;;28.92;17.87;;;;;;;4.83;87.01;99727.55;1756896;81;20979;-65
2022/11/25 01:09:02;;;;;;;33.48;17.15;;;;;;;4.82;87.04;99729.30;1727417;81;20995;-65
2022/11/25 01:11:29;;;;;;;47.20;19.10;;;;;;;4.85;87.10;99737.44;1759484;78;21340;-65
2022/11/25 01:13:57;;;;;;;30.12;19.05;;;;;;;4.84;87.06;99735.30;1787871;80;20923;-65
2022/11/25 01:16:24;;;;;;;37.65;19.32;;;;;;;4.83;87.08;99734.93;1785251;80;21833;-65
2022/11/25 01:18:51;;;;;;;29.82;19.62;;;;;;;4.81;87.04;99732.86;1787746;80;21038;-65
2022/11/25 01:21:23;;;;;;;38.92;17.10;;;;;;;4.80;87.01;99731.19;1788068;80;21382;-65
2022/11/25 01:23:50;;;;;;;29.65;17.30;;;;;;;4.80;87.02;99735.58;1786721;80;20987;-65
2022/11/25 01:26:22;;;;;;;22.98;16.60;;;;;;;4.79;87.04;99734.74;1787985;78;20979;-65
2022/11/25 01:28:50;;;;;;;26.02;16.70;;;;;;;4.80;87.05;99731.19;1769861;80;21825;-65
2022/11/25 01:31:19;;;;;;;36.75;16.27;;;;;;;4.81;87.04;99732.02;1756750;81;20924;-65
2022/11/25 01:33:49;;;;;;;28.80;17.27;;;;;;;4.81;87.04;99728.93;1756781;81;20955;-66
2022/11/25 01:36:17;;;;;;;27.85;17.17;;;;;;;4.80;87.01;99734.27;1756518;81;20955;-65
2022/11/25 01:38:44;;;;;;;27.20;16.15;;;;;;;4.81;87.04;99737.25;1756715;81;20971;-65
2022/11/25 01:41:13;;;;;;;26.42;16.00;;;;;;;4.81;87.02;99732.86;1756765;81;22429;-65
2022/11/25 01:43:40;;;;;;;27.85;16.85;;;;;;;4.82;86.98;99738.92;1757072;81;21062;-65
2022/11/25 01:46:23;;;;;;;29.37;16.07;;;;;;;4.80;86.96;99735.58;1757734;80;21015;-65
2022/11/25 01:48:54;;;;;;;31.57;16.67;;;;;;;4.79;86.91;99738.66;1756349;81;20999;-65
2022/11/25 01:51:28;;;;;;;32.55;18.35;;;;;;;4.77;86.91;99743.17;1756787;81;21101;-66
2022/11/25 01:53:57;;;;;;;37.88;17.85;;;;;;;4.76;86.89;99749.81;1756717;81;21797;-65
2022/11/25 01:56:25;;;;;;;30.82;17.30;;;;;;;4.73;86.87;99752.61;1756610;81;21474;-65
2022/11/25 01:58:51;;;;;;;31.40;18.42;;;;;;;4.72;86.89;99747.84;1756723;81;21013;-65
2022/11/25 02:01:20;;;;;;;30.77;17.70;;;;;;;4.74;86.88;99753.84;1756783;81;21442;-65
2022/11/25 02:03:48;;;;;;;29.75;17.32;;;;;;;4.76;86.87;99757.66;1757958;80;20932;-67
2022/11/25 02:06:24;;;;;;;42.17;17.60;;;;;;;4.77;86.82;99758.03;1756817;81;21477;-65
2022/11/25 02:09:06;;;;;;;28.60;17.32;;;;;;;4.77;86.82;99763.26;1756573;81;21002;-65
2022/11/25 02:11:37;;;;;;;30.20;17.32;;;;;;;4.75;86.84;99762.53;1772004;80;20967;-65
2022/11/25 02:14:06;;;;;;;33.60;17.67;;;;;;;4.76;86.85;99767.66;1788257;80;21265;-65
2022/11/25 02:16:34;;;;;;;37.17;17.92;;;;;;;4.77;86.83;99766.72;1787662;80;21002;-65
2022/11/25 02:19:02;;;;;;;33.02;17.10;;;;;;;4.77;86.78;99773.25;1781158;79;22008;-65
2022/11/25 02:21:36;;;;;;;32.65;16.93;;;;;;;4.74;86.74;99773.46;1756587;81;21035;-65
2022/11/25 02:24:11;;;;;;;27.27;17.45;;;;;;;4.75;86.80;99774.30;1756229;81;20999;-65
2022/11/25 02:26:38;;;;;;;27.30;17.35;;;;;;;4.73;86.74;99769.61;1756720;80;21019;-65
2022/11/25 02:29:05;;;;;;;27.37;17.02;;;;;;;4.73;86.77;99774.84;1756441;81;20995;-65
2022/11/25 02:31:32;;;;;;;29.55;16.65;;;;;;;4.72;86.76;99776.62;1756744;81;21910;-65
2022/11/25 02:34:00;;;;;;;28.25;17.10;;;;;;;4.71;86.75;99772.33;1756568;80;21125;-65
2022/11/25 02:36:26;;;;;;;33.10;17.45;;;;;;;4.71;86.75;99764.95;1757842;80;20948;-66
2022/11/25 02:38:59;;;;;;;28.73;17.52;;;;;;;4.73;86.75;99774.84;1757318;81;21410;-65
2022/11/25 02:41:31;;;;;;;30.10;17.73;;;;;;;4.74;86.74;99774.77;1757133;81;21014;-65
2022/11/25 02:44:00;;;;;;;28.10;16.20;;;;;;;4.74;86.71;99775.23;1757278;81;21750;-65
2022/11/25 02:46:27;;;;;;;27.02;15.58;;;;;;;4.74;86.67;99783.09;1756854;81;20924;-65
2022/11/25 02:48:55;;;;;;;27.25;16.37;;;;;;;4.73;86.66;99782.69;1756961;81;20983;-65
2022/11/25 02:51:24;;;;;;;29.37;16.23;;;;;;;4.73;86.64;99779.64;1756914;80;20991;-65
2022/11/25 02:53:52;;;;;;;26.23;15.95;;;;;;;4.76;86.64;99783.35;1758190;80;21051;-66
2022/11/25 02:56:24;;;;;;;22.62;14.55;;;;;;;4.77;86.62;99786.80;1756952;81;21815;-65
2022/11/25 02:58:50;;;;;;;22.50;14.15;;;;;;;4.75;86.60;99788.69;1756959;80;21437;-65
2022/11/25 03:01:17;;;;;;;22.22;14.10;;;;;;;4.75;86.57;99786.08;1756932;81;20991;-65
2022/11/25 03:03:43;;;;;;;21.20;14.20;;;;;;;4.72;86.48;99792.79;1756909;81;20979;-65
2022/11/25 03:06:10;;;;;;;20.85;14.23;;;;;;;4.67;86.42;99787.03;1757049;81;21097;-65
2022/11/25 03:08:38;;;;;;;27.55;14.85;;;;;;;4.66;86.45;99794.04;1756879;81;21950;-65
2022/11/25 03:11:08;;;;;;;21.50;14.07;;;;;;;4.67;86.50;99788.34;1767787;80;20947;-65
2022/11/25 03:13:35;;;;;;;24.12;15.05;;;;;;;4.67;86.50;99793.10;1788054;79;20963;-65
2022/11/25 03:16:04;;;;;;;22.25;14.58;;;;;;;4.69;86.49;99794.30;1788078;80;20988;-65
2022/11/25 03:18:30;;;;;;;23.95;14.78;;;;;;;4.70;86.47;99792.05;1787958;80;21517;-65
2022/11/25 03:20:58;;;;;;;24.47;15.25;;;;;;;4.71;86.46;99794.56;1788032;80;21809;-65
2022/11/25 03:23:25;;;;;;;24.90;15.90;;;;;;;4.72;86.41;99799.33;1788150;79;21074;-65
2022/11/25 03:25:54;;;;;;;23.60;15.80;;;;;;;4.73;86.37;99797.08;1788061;80;21034;-65
2022/11/25 03:28:22;;;;;;;21.73;14.68;;;;;;;4.70;86.30;99790.28;1762994;78;21453;-65
2022/11/25 03:30:48;;;;;;;24.25;14.73;;;;;;;4.67;86.28;99797.02;1756908;81;20944;-65
2022/11/25 03:33:15;;;;;;;21.52;13.83;;;;;;;4.67;86.29;99789.65;1756896;81;21816;-65
2022/11/25 03:35:42;;;;;;;25.08;14.10;;;;;;;4.68;86.30;99792.63;1756586;80;20983;-65
2022/11/25 03:38:08;;;;;;;19.73;13.35;;;;;;;4.67;86.27;99793.10;1756909;81;21050;-65
2022/11/25 03:40:36;;;;;;;21.05;13.88;;;;;;;4.69;86.29;99799.53;1756849;81;20983;-65
2022/11/25 03:43:04;;;;;;;21.70;13.95;;;;;;;4.68;86.23;99792.16;1757101;81;21051;-65
2022/11/25 03:45:31;;;;;;;21.62;13.88;;;;;;;4.69;86.23;99794.30;1752850;81;21927;-65
2022/11/25 03:47:58;;;;;;;20.10;13.15;;;;;;;4.68;86.21;99792.16;1756836;81;20952;-65
2022/11/25 03:50:25;;;;;;;18.00;12.80;;;;;;;4.65;86.19;99793.67;1756953;81;20958;-65
2022/11/25 03:52:53;;;;;;;20.90;14.25;;;;;;;4.64;86.14;99799.84;1756777;80;21007;-65
2022/11/25 03:55:20;;;;;;;19.95;13.80;;;;;;;4.62;86.19;99795.16;1756897;80;21034;-65
2022/11/25 03:57:47;;;;;;;19.12;13.40;;;;;;;4.61;86.18;99801.33;1757029;81;21911;-66
2022/11/25 04:00:14;;;;;;;21.80;13.95;;;;;;;4.61;86.16;99805.25;1756865;81;21409;-65
2022/11/25 04:02:52;;;;;;;22.25;13.83;;;;;;;4.58;86.15;99802.84;1787950;78;21110;-64
2022/11/25 04:05:19;;;;;;;22.00;14.30;;;;;;;4.56;86.11;99810.79;1788100;79;20955;-64
2022/11/25 04:07:45;;;;;;;18.55;13.03;;;;;;;4.56;86.13;99808.64;1788083;78;21423;-73
2022/11/25 04:10:12;;;;;;;20.32;13.32;;;;;;;4.54;86.11;99819.20;1788104;78;22437;-64
2022/11/25 04:12:45;;;;;;;21.62;14.10;;;;;;;4.54;86.14;99814.45;1757775;80;21014;-66
2022/11/25 04:15:15;;;;;;;18.82;12.63;;;;;;;4.55;86.13;99820.05;1758000;80;21368;-64
2022/11/25 04:17:42;;;;;;;19.92;13.13;;;;;;;4.54;86.10;99823.60;1782519;80;21338;-64
2022/11/25 04:20:11;;;;;;;20.82;12.53;;;;;;;4.51;86.07;99827.23;1756819;81;21389;-64
2022/11/25 04:22:38;;;;;;;18.62;12.93;;;;;;;4.48;86.09;99830.05;1756988;81;21824;-64
2022/11/25 04:25:07;;;;;;;20.02;12.85;;;;;;;4.47;86.10;99824.45;1756902;81;20855;-63
2022/11/25 04:27:33;;;;;;;19.05;11.68;;;;;;;4.48;86.15;99831.35;1727074;81;21007;-64
2022/11/25 04:30:01;;;;;;;17.05;11.60;;;;;;;4.46;86.12;99829.31;1756731;81;21003;-64
2022/11/25 04:32:28;;;;;;;18.25;11.33;;;;;;;4.47;86.11;99836.69;1756692;80;20947;-64
2022/11/25 04:34:55;;;;;;;17.40;11.48;;;;;;;4.46;86.10;99835.01;1757869;80;22855;-64
2022/11/25 04:37:22;;;;;;;15.75;11.28;;;;;;;4.44;86.04;99829.88;1756837;81;21022;-64
2022/11/25 04:39:49;;;;;;;15.83;11.18;;;;;;;4.43;86.11;99837.32;1756681;80;20956;-64
2022/11/25 04:42:38;;;;;;;15.65;10.85;;;;;;;4.42;86.05;99842.66;1756862;80;21007;-64
2022/11/25 04:45:14;;;;;;;18.00;11.83;;;;;;;4.38;86.00;99843.33;1757003;81;20991;-64
2022/11/25 04:47:41;;;;;;;15.88;11.65;;;;;;;4.34;85.96;99844.91;1756864;81;22513;-65
2022/11/25 04:50:16;;;;;;;17.60;11.80;;;;;;;4.34;86.03;99847.05;1756458;81;21034;-64
2022/11/25 04:52:44;;;;;;;16.87;11.78;;;;;;;4.34;86.01;99843.59;1757684;80;21473;-65
2022/11/25 04:55:11;;;;;;;17.32;12.25;;;;;;;4.33;86.03;99847.15;1756735;80;21107;-64
2022/11/25 04:57:39;;;;;;;16.35;11.83;;;;;;;4.31;86.04;99846.78;1756728;81;20928;-64
2022/11/25 05:00:08;;;;;;;17.15;11.83;;;;;;;4.32;86.05;99856.77;1756874;81;21819;-64
2022/11/25 05:02:34;;;;;;;16.35;11.15;;;;;;;4.30;86.05;99854.25;1727228;81;21040;-64
2022/11/25 05:05:04;;;;;;;14.85;10.98;;;;;;;4.29;86.05;99858.27;1756329;81;20986;-64
2022/11/25 05:07:31;;;;;;;16.35;11.93;;;;;;;4.31;86.09;99852.48;1756977;81;21035;-64
2022/11/25 05:09:59;;;;;;;16.67;11.53;;;;;;;4.33;86.09;99862.83;1777250;78;20948;-64
2022/11/25 05:12:28;;;;;;;14.18;10.30;;;;;;;4.33;86.08;99862.83;1786970;80;21847;-64
2022/11/25 05:14:55;;;;;;;13.48;9.98;;;;;;;4.35;86.09;99859.22;1787852;79;20972;-65
2022/11/25 05:17:25;;;;;;;14.83;10.60;;;;;;;4.32;86.01;99859.38;1788070;80;21038;-64
2022/11/25 05:19:51;;;;;;;15.78;11.35;;;;;;;4.31;85.97;99865.55;1787545;80;21112;-65
2022/11/25 05:22:22;;;;;;;14.98;10.98;;;;;;;4.30;85.99;99865.17;1788027;80;20963;-64
2022/11/25 05:24:48;;;;;;;15.58;10.88;;;;;;;4.29;86.01;99860.42;1787989;80;22621;-64
2022/11/25 05:27:16;;;;;;;18.92;11.45;;;;;;;4.29;86.02;99863.03;1764810;80;20935;-65
2022/11/25 05:29:43;;;;;;;17.10;11.95;;;;;;;4.30;86.04;99864.70;1756357;81;20995;-64
2022/11/25 05:32:11;;;;;;;17.00;11.65;;;;;;;4.34;86.04;99867.12;1756621;81;21038;-65
2022/11/25 05:34:37;;;;;;;17.98;11.97;;;;;;;4.34;86.00;99871.05;1756699;80;21011;-64
2022/11/25 05:37:04;;;;;;;16.77;11.70;;;;;;;4.33;85.96;99878.52;1726990;81;21920;-64
2022/11/25 05:39:34;;;;;;;20.92;12.85;;;;;;;4.33;85.92;99883.28;1756394;81;20987;-64
2022/11/25 05:42:15;;;;;;;19.02;13.22;;;;;;;4.28;85.86;99884.05;1756836;81;20947;-64
2022/11/25 05:44:42;;;;;;;18.95;12.30;;;;;;;4.22;85.85;99891.78;1757861;80;21030;-65
2022/11/25 05:47:09;;;;;;;20.37;12.75;;;;;;;4.22;85.96;99894.39;1756802;80;21023;-65
2022/11/25 05:49:36;;;;;;;21.77;13.13;;;;;;;4.24;85.91;99900.36;1756777;81;22855;-65
2022/11/25 05:52:03;;;;;;;22.98;13.85;;;;;;;4.24;85.91;99915.20;1756761;80;21449;-65
2022/11/25 05:54:31;;;;;;;22.27;13.58;;;;;;;4.24;85.94;99914.73;1756894;81;21413;-64
2022/11/25 05:56:59;;;;;;;24.00;14.07;;;;;;;4.25;85.92;99918.23;1756774;81;20987;-65
2022/11/25 05:59:30;;;;;;;22.67;13.83;;;;;;;4.27;85.94;99920.27;1757734;80;21022;-66
2022/11/25 06:02:05;;;;;;;25.77;14.23;;;;;;;4.27;85.93;99922.89;1756999;80;22813;-65
2022/11/25 06:04:32;;;;;;;24.20;14.73;;;;;;;4.28;85.93;99924.56;1756883;81;20999;-65
2022/11/25 06:06:59;;;;;;;24.55;14.73;;;;;;;4.28;85.94;99926.71;1757075;80;20979;-65
2022/11/25 06:09:25;;;;;;;25.62;14.47;;;;;;;4.30;85.95;99931.84;1770766;80;20987;-65
2022/11/25 06:11:53;;;;;;;25.72;14.87;;;;;;;4.31;85.94;99933.52;1788067;78;21401;-65
2022/11/25 06:14:19;;;;;;;25.20;14.63;;;;;;;4.30;85.89;99931.84;1788120;79;21835;-65
2022/11/25 06:16:46;;;;;;;29.30;15.75;;;;;;;4.30;85.87;99937.07;1783878;78;20983;-65
2022/11/25 06:19:15;;;;;;;27.98;15.35;;;;;;;4.30;85.87;99943.61;1755325;81;20952;-66
2022/11/25 06:21:42;;;;;;;30.75;17.07;;;;;;;4.28;85.85;99942.39;1757049;81;21389;-65
2022/11/25 06:24:09;;;;;;;29.63;16.67;;;;;;;4.26;85.79;99940.81;1756915;81;20990;-65
2022/11/25 06:26:36;;;;;;;35.75;17.82;;;;;;;4.25;85.79;99941.75;1757073;81;21823;-65
2022/11/25 06:29:02;;;;;;;29.05;17.23;;;;;;;4.23;85.82;99948.36;1757037;81;21489;-65
2022/11/25 06:31:30;;;;;;;33.50;17.12;;;;;;;4.23;85.80;99942.29;1756917;81;21377;-65
2022/11/25 06:34:01;;;;;;;29.25;17.25;;;;;;;4.22;85.77;99951.91;1758273;80;21078;-65
2022/11/25 06:36:28;;;;;;;31.27;16.77;;;;;;;4.22;85.77;99958.44;1756913;80;20951;-65
2022/11/25 06:38:54;;;;;;;29.63;17.17;;;;;;;4.21;85.78;99959.38;1756967;81;22002;-65
2022/11/25 06:41:21;;;;;;;28.20;15.60;;;;;;;4.19;85.73;99953.41;1756874;80;21105;-65
2022/11/25 06:43:48;;;;;;;30.57;16.87;;;;;;;4.16;85.74;99956.21;1757079;81;21409;-66
2022/11/25 06:46:16;;;;;;;34.85;18.02;;;;;;;4.17;85.82;99955.75;1757259;80;20991;-65
2022/11/25 06:48:43;;;;;;;37.20;19.17;;;;;;;4.16;85.78;99957.98;1757072;81;20986;-65
2022/11/25 06:51:11;;;;;;;34.35;17.57;;;;;;;4.17;85.85;99957.05;1757918;80;21803;-65
2022/11/25 06:53:40;;;;;;;32.08;18.32;;;;;;;4.19;85.85;99963.86;1728217;80;20951;-65
2022/11/25 06:56:18;;;;;;;32.35;18.20;;;;;;;4.19;85.86;99965.17;1756966;80;21477;-65
2022/11/25 06:58:46;;;;;;;30.72;17.27;;;;;;;4.21;85.87;99972.45;1757045;81;20967;-63
2022/11/25 07:01:22;;;;;;;35.70;19.35;;;;;;;4.20;85.87;99973.38;1757049;81;21047;-63
2022/11/25 07:03:59;;;;;;;31.10;17.48;;;;;;;4.19;85.83;99974.31;1757002;81;21840;-66
2022/11/25 07:06:26;;;;;;;31.50;18.07;;;;;;;4.20;85.84;99970.77;1757261;81;20983;-63
2022/11/25 07:08:54;;;;;;;29.50;17.62;;;;;;;4.20;85.82;99977.77;1758413;80;21015;-64
2022/11/25 07:11:26;;;;;;;31.62;17.95;;;;;;;4.21;85.83;99978.14;1757055;81;21548;-64
2022/11/25 07:13:56;;;;;;;32.75;18.37;;;;;;;4.23;85.84;99984.11;1757000;81;21066;-64
2022/11/25 07:16:23;;;;;;;33.18;19.10;;;;;;;4.25;85.86;99978.35;1756304;81;22537;-65
2022/11/25 07:18:51;;;;;;;34.78;18.55;;;;;;;4.27;85.87;99985.63;1761022;80;21042;-65
2022/11/25 07:21:22;;;;;;;30.48;18.62;;;;;;;4.29;85.83;99980.67;1777001;80;20952;-64
2022/11/25 07:23:49;;;;;;;28.90;17.20;;;;;;;4.33;85.84;99987.86;1770657;81;20953;-64
2022/11/25 07:26:26;;;;;;;29.42;18.05;;;;;;;4.33;85.76;99987.86;1747523;81;20853;-64
2022/11/25 07:28:54;;;;;;;33.23;19.07;;;;;;;4.30;85.69;99990.20;1740484;81;21838;-64
2022/11/25 07:31:26;;;;;;;31.75;18.37;;;;;;;4.29;85.71;99990.30;1740421;82;21075;-64
2022/11/25 07:33:59;;;;;;;32.23;18.75;;;;;;;4.31;85.78;99993.66;1740874;81;21040;-66
2022/11/25 07:36:26;;;;;;;32.03;18.60;;;;;;;4.27;85.58;99987.78;1739923;82;21452;-65
2022/11/25 07:38:53;;;;;;;34.25;19.15;;;;;;;4.27;85.58;99987.78;1740450;81;21443;-65
2022/11/25 07:41:22;;;;;;;32.90;18.90;;;;;;;4.26;85.67;99991.80;1740408;82;21922;-65
2022/11/25 07:43:52;;;;;;;35.88;20.52;;;;;;;4.25;85.68;99996.65;1741573;81;21039;-64
2022/11/25 07:46:24;;;;;;;36.88;20.35;;;;;;;4.23;85.63;99993.27;1740475;81;20991;-64
2022/11/25 07:48:52;;;;;;;33.78;19.60;;;;;;;4.20;85.62;99996.91;1740788;81;21015;-63
2022/11/25 07:51:21;;;;;;;38.08;20.05;;;;;;;4.20;85.66;99995.59;1740403;82;20944;-64
2022/11/25 07:53:48;;;;;;;38.75;20.02;;;;;;;4.20;85.65;99995.59;1740410;82;22481;-66
2022/11/25 07:56:15;;;;;;;35.25;20.60;;;;;;;4.19;85.62;100003.06;1740420;82;21078;-64
2022/11/25 07:58:42;;;;;;;35.43;21.12;;;;;;;4.18;85.61;99998.78;1741483;81;21043;-64
2022/11/25 08:01:11;;;;;;;33.88;19.57;;;;;;;4.15;85.58;100004.20;1740516;82;21375;-64
2022/11/25 08:03:39;;;;;;;42.75;22.73;;;;;;;4.14;85.64;99999.03;1740472;82;21354;-64
2022/11/25 08:06:11;;;;;;;41.98;22.58;;;;;;;4.13;85.56;100007.34;1740450;82;21847;-64
2022/11/25 08:08:38;;;;;;;42.98;22.45;;;;;;;4.14;85.64;99999.03;1756052;81;20985;-64
2022/11/25 08:11:13;;;;;;;41.53;22.05;;;;;;;4.16;85.70;100002.42;1770897;81;20956;-65
2022/11/25 08:13:40;;;;;;;40.85;22.60;;;;;;;4.19;85.71;99999.15;1770982;81;20948;-64
2022/11/25 08:16:07;;;;;;;40.90;21.65;;;;;;;4.21;85.72;100000.36;1762920;81;21505;-64
2022/11/25 08:18:34;;;;;;;44.13;21.85;;;;;;;4.23;85.73;100001.11;1740495;82;22018;-64
2022/11/25 08:21:03;;;;;;;38.25;19.77;;;;;;;4.19;85.62;100006.98;1746749;81;20992;-65
2022/11/25 08:23:31;;;;;;;40.15;22.52;;;;;;;4.16;85.60;100005.03;1756986;81;20999;-64
2022/11/25 08:26:04;;;;;;;49.80;22.98;;;;;;;4.13;85.59;100003.89;1756777;81;20931;-64
2022/11/25 08:28:33;;;;;;;47.33;22.47;;;;;;;4.12;85.61;100004.35;1757130;81;21472;-64
2022/11/25 08:31:04;;;;;;;39.55;22.42;;;;;;;4.14;85.68;100008.18;1757162;80;21827;-64
2022/11/25 08:33:31;;;;;;;39.25;22.05;;;;;;;4.16;85.75;100006.34;1758040;80;21078;-64
2022/11/25 08:35:58;;;;;;;45.35;22.25;;;;;;;4.21;85.81;100007.73;1756844;81;21426;-64
2022/11/25 08:38:27;;;;;;;43.63;21.02;;;;;;;4.21;85.77;100006.42;1756833;81;20982;-64
2022/11/25 08:40:54;;;;;;;46.23;22.15;;;;;;;4.23;85.83;100000.64;1756858;81;21015;-64
2022/11/25 08:43:20;;;;;;;47.78;21.97;;;;;;;4.22;85.74;99999.42;1756886;81;21836;-64
2022/11/25 08:45:48;;;;;;;45.35;21.60;;;;;;;4.22;85.78;99998.12;1756810;81;21439;-64
2022/11/25 08:48:16;;;;;;;45.43;21.65;;;;;;;4.23;85.82;99999.33;1756894;81;21034;-64
2022/11/25 08:50:52;;;;;;;42.93;22.32;;;;;;;4.27;85.88;99998.70;1758115;80;21046;-64
2022/11/25 08:53:19;;;;;;;37.25;19.75;;;;;;;4.33;85.94;99997.48;1756982;81;21410;-64
2022/11/25 08:55:46;;;;;;;40.90;21.52;;;;;;;4.39;85.97;99996.66;1756878;81;21819;-66
2022/11/25 08:58:13;;;;;;;38.10;20.45;;;;;;;4.37;85.83;99997.22;1756847;81;20995;-64
2022/11/25 09:00:40;;;;;;;40.25;21.75;;;;;;;4.32;85.76;99999.25;1756988;81;20936;-64
2022/11/25 09:03:07;;;;;;;39.90;20.27;;;;;;;4.27;85.76;99995.63;1756914;80;20936;-64
2022/11/25 09:05:40;;;;;;;42.90;20.57;;;;;;;4.27;85.83;100002.63;1756854;81;21038;-64
2022/11/25 09:08:07;;;;;;;38.58;19.67;;;;;;;4.26;85.81;99998.33;1731439;80;22626;-64
2022/11/25 09:10:36;;;;;;;38.67;20.68;;;;;;;4.24;85.84;99998.86;1757094;81;21082;-64
2022/11/25 09:13:04;;;;;;;37.48;21.90;;;;;;;4.24;85.86;99995.78;1757232;81;21054;-65
2022/11/25 09:15:31;;;;;;;44.77;22.00;;;;;;;4.23;85.86;99994.57;1756804;80;21007;-65
2022/11/25 09:18:03;;;;;;;34.55;18.92;;;;;;;4.26;85.99;99999.17;1756771;81;20987;-64
2022/11/25 09:20:31;;;;;;;63.68;38.83;;;;;;;4.33;86.08;99994.39;1756865;81;21942;-64
2022/11/25 09:22:59;;;;;;;55.45;30.77;;;;;;;4.35;86.10;99995.17;1756975;81;20984;-64
2022/11/25 09:25:26;;;;;;;42.05;22.20;;;;;;;4.42;86.17;100000.38;1782721;80;21402;-64
2022/11/25 09:27:53;;;;;;;41.75;20.62;;;;;;;4.48;86.20;99997.41;1787928;80;21433;-64
2022/11/25 09:30:20;;;;;;;49.80;21.12;;;;;;;4.49;86.16;99989.09;1788043;80;20939;-64
2022/11/25 09:32:48;;;;;;;34.88;19.92;;;;;;;4.50;86.13;99993.39;1787980;80;21919;-64
2022/11/25 09:35:16;;;;;;;35.15;18.80;;;;;;;4.49;86.06;99990.41;1788079;78;20971;-64
2022/11/25 09:37:42;;;;;;;39.58;20.05;;;;;;;4.48;86.04;99990.88;1788016;80;20987;-64
2022/11/25 09:40:37;;;;;;;36.00;19.75;;;;;;;4.47;86.00;99994.42;1787758;79;21065;-64
2022/11/25 09:46:44;;;;;;;38.00;19.05;;;;;;;4.40;85.91;99990.48;1756911;80;21382;-65
2022/11/25 09:49:33;;;;;;;37.90;20.90;;;;;;;4.44;86.03;99995.05;1756772;81;39065;-64
2022/11/25 09:52:51;;;;;;;46.40;20.75;;;;;;;4.41;85.92;99995.25;1756903;80;20867;-64
2022/11/25 09:55:22;;;;;;;39.48;20.00;;;;;;;4.39;85.96;100001.88;1756634;81;20968;-64
2022/11/25 09:58:34;;;;;;;42.48;20.70;;;;;;;4.36;85.93;100007.31;1757594;80;21126;-65
2022/11/25 10:01:05;;;;;;;43.78;20.30;;;;;;;4.36;85.95;100010.39;1755869;81;22545;-65
2022/11/25 10:03:55;;;;;;;50.92;21.20;;;;;;;4.39;86.00;100014.12;1756776;81;21543;-64
2022/11/25 10:06:28;;;;;;;52.35;20.23;;;;;;;4.39;86.02;100012.81;1754950;81;21039;-64
2022/11/25 10:09:02;;;;;;;40.03;19.85;;;;;;;4.38;85.98;100014.59;1756859;81;21043;-64
2022/11/25 10:11:54;;;;;;;48.28;20.62;;;;;;;4.35;85.95;100016.09;1756968;80;20995;-64
2022/11/25 10:14:47;;;;;;;44.15;20.65;;;;;;;4.35;85.97;100013.94;1756796;81;21928;-64
2022/11/25 10:17:34;;;;;;;35.35;19.37;;;;;;;4.37;86.02;100014.22;1756738;80;21011;-64
2022/11/25 10:20:21;;;;;;;48.25;21.82;;;;;;;4.35;85.98;100012.16;1756691;81;21030;-64
2022/11/25 10:22:54;;;;;;;42.03;20.65;;;;;;;4.34;85.96;100013.53;1772800;79;20948;-64
2022/11/25 10:25:29;;;;;;;59.98;20.37;;;;;;;4.36;86.08;100015.15;1770981;81;21055;-64
2022/11/25 10:28:17;;;;;;;37.33;19.40;;;;;;;4.40;86.13;100017.11;1770817;81;21904;-64
2022/11/25 10:31:28;;;;;;;33.20;17.17;;;;;;;4.41;86.08;100022.23;1770760;79;20988;-64
2022/11/25 10:33:57;;;;;;;46.23;19.95;;;;;;;4.40;86.04;100017.95;1739614;81;20989;-64
2022/11/25 10:36:28;;;;;;;41.95;20.32;;;;;;;4.31;85.84;100017.18;1740193;81;21027;-64
2022/11/25 10:39:23;;;;;;;43.60;21.02;;;;;;;4.27;85.84;100017.00;1740585;82;20964;-64
2022/11/25 10:42:02;;;;;;;39.35;21.17;;;;;;;4.27;85.92;100014.39;1740275;82;22861;-65
2022/11/25 10:44:34;;;;;;;36.10;18.67;;;;;;;4.26;85.95;100013.55;1740296;82;20952;-64
2022/11/25 10:47:23;;;;;;;37.28;20.43;;;;;;;4.24;85.95;100014.08;1740301;82;20987;-64
2022/11/25 10:50:22;;;;;;;42.48;22.80;;;;;;;4.21;85.92;100018.19;1741326;81;20960;-65
2022/11/25 10:53:04;;;;;;;43.30;24.37;;;;;;;4.22;86.01;100012.49;1740560;81;20944;-64
2022/11/25 10:55:32;;;;;;;40.63;20.12;;;;;;;4.22;86.09;100014.64;1697383;83;21758;-64
2022/11/25 10:57:59;;;;;;;41.53;21.45;;;;;;;4.23;86.10;100014.17;1740583;82;20987;-64
2022/11/25 11:00:35;;;;;;;38.83;20.23;;;;;;;4.22;86.04;100013.34;1740452;81;20993;-64
2022/11/25 11:03:15;;;;;;;40.85;20.50;;;;;;;4.20;86.02;100014.36;1740260;82;21035;-65
2022/11/25 11:05:47;;;;;;;41.92;19.95;;;;;;;4.19;86.00;100017.45;1740345;81;21058;-64
2022/11/25 11:08:24;;;;;;;32.05;18.98;;;;;;;4.17;86.00;100015.86;1764362;81;21937;-64
2022/11/25 11:11:17;;;;;;;39.18;20.62;;;;;;;4.15;86.03;100015.09;1771323;81;20943;-64
2022/11/25 11:13:44;;;;;;;43.00;20.15;;;;;;;4.13;86.01;100019.56;1771078;79;21498;-63
2022/11/25 11:16:31;;;;;;;46.75;21.20;;;;;;;4.12;86.04;100015.27;1771327;79;21107;-63
2022/11/25 11:18:58;;;;;;;33.38;19.80;;;;;;;4.13;86.09;100014.34;1770931;79;20933;-64
2022/11/25 11:21:37;;;;;;;36.73;19.17;;;;;;;4.15;86.18;100024.23;1773841;80;22456;-64
2022/11/25 11:24:27;;;;;;;38.70;19.32;;;;;;;4.12;86.14;100020.03;1767496;78;20999;-64
2022/11/25 11:27:08;;;;;;;49.45;21.50;;;;;;;4.08;86.09;100021.62;1756802;81;20986;-64
2022/11/25 11:29:35;;;;;;;45.60;20.92;;;;;;;4.06;86.17;100025.64;1757086;80;21002;-64
2022/11/25 11:32:05;;;;;;;51.63;21.17;;;;;;;4.07;86.23;100024.70;1756816;81;21054;-64
2022/11/25 11:34:55;;;;;;;42.90;20.43;;;;;;;4.10;86.31;100022.38;1756902;81;21844;-64
2022/11/25 11:37:30;;;;;;;42.85;20.32;;;;;;;4.13;86.33;100022.18;1756921;80;21097;-64
2022/11/25 11:40:38;;;;;;;40.23;19.92;;;;;;;4.11;86.31;100022.74;1757860;80;20975;-64
2022/11/25 11:43:39;;;;;;;45.15;21.75;;;;;;;4.11;86.36;100024.89;1756897;80;21085;-64
2022/11/25 11:46:26;;;;;;;34.45;18.00;;;;;;;4.08;86.34;100027.69;1756970;81;21089;-64
2022/11/25 11:49:25;;;;;;;42.93;20.35;;;;;;;4.11;86.39;100030.58;1756880;81;22655;-65
2022/11/25 11:51:57;;;;;;;40.95;21.10;;;;;;;4.10;86.41;100035.44;1756928;81;20975;-65